EFHK

Helsinki Vantaa Airport

Helsinki, Finland
METAR EFHK 152150Z 28004KT CAVOK 13/12 Q1014 NOSIG
Observed Flight Rules
Aug-15 @ 21:50 UTC (37 minutes ago) Visual Flight Rules
Wind Visibility Clouds
280° at 4 knots 10,000+ meters
  • Clear skies
Temperatures Readings
Current 13°C / 55°F
Dewpoint 12°C / 54°F
Humidity 94%
Altimeter 29.94" Hg
Pressure 1014 hPa
Elevation 56
METAR EFHK 152150Z 28004KT CAVOK 13/12 Q1014 NOSIG
Observed Flight Rules
Aug-15 @ 21:50 UTC
(37 minutes ago)
VFR
Wind Visibility
280° at 4 knots 10,000+ meters
Clouds
  • Clear skies
Temperature Dewpoint
13°C / 55°F 12°C / 54°F
Humidity Altimeter Pressure
94% 29.94" Hg 1014 hPa